HAZ192 ZSPD-RJTT
Flight info
| Callsign | HAZ192 |
|---|---|
| Flight time | N/A |
| Altitude | 39000 |
| Route | LAM91D LAMEN A593 SADLI Y590 BEDAR Y591 FUE Y23 ARTIC Y71 XAC XAC2N |
| Aircraft | A20N/M-SDE2E3FGHIRWXY/LB1 |
Departure
| Time | 2026-05-04 05:51 |
|---|---|
| Airport | Shanghai Pudong International Airport (ZSPD) |
Arrival
| Time | N/A |
|---|---|
| Airport | Tokyo Haneda International Airport (RJTT) |
| Time | Latitude | Longitude | Altitude | Speed | Heading |
|---|---|---|---|---|---|
| 2026-05-04 05:28 | 31.14066 | 121.81011 | 21 ft | 0 kts | 72° |
| 2026-05-04 05:34 | 31.14066 | 121.81010 | 21 ft | 1 kts | 72° |
| 2026-05-04 05:34 | 31.14061 | 121.80994 | 21 ft | 1 kts | 72° |
| 2026-05-04 05:34 | 31.14058 | 121.80983 | 21 ft | 2 kts | 64° |
| 2026-05-04 05:35 | 31.14050 | 121.80969 | 21 ft | 2 kts | 46° |
| 2026-05-04 05:35 | 31.14038 | 121.80957 | 21 ft | 2 kts | 30° |
| 2026-05-04 05:35 | 31.14023 | 121.80950 | 21 ft | 2 kts | 13° |
| 2026-05-04 05:35 | 31.14008 | 121.80949 | 21 ft | 2 kts | 357° |
| 2026-05-04 05:36 | 31.13996 | 121.80950 | 21 ft | 0 kts | 344° |
| 2026-05-04 05:36 | 31.13990 | 121.80953 | 21 ft | 0 kts | 341° |
| 2026-05-04 05:37 | 31.13990 | 121.80952 | 21 ft | 0 kts | 341° |
| 2026-05-04 05:38 | 31.14010 | 121.80945 | 21 ft | 2 kts | 341° |
| 2026-05-04 05:38 | 31.14032 | 121.80936 | 21 ft | 3 kts | 341° |
| 2026-05-04 05:38 | 31.14062 | 121.80925 | 21 ft | 5 kts | 342° |
| 2026-05-04 05:38 | 31.14099 | 121.80911 | 21 ft | 6 kts | 342° |
| 2026-05-04 05:39 | 31.14144 | 121.80894 | 21 ft | 7 kts | 342° |
| 2026-05-04 05:39 | 31.14251 | 121.80846 | 21 ft | 8 kts | 308° |
| 2026-05-04 05:39 | 31.14243 | 121.80776 | 21 ft | 9 kts | 252° |
| 2026-05-04 05:40 | 31.14199 | 121.80609 | 21 ft | 11 kts | 253° |
| 2026-05-04 05:40 | 31.14175 | 121.80514 | 21 ft | 12 kts | 253° |
| 2026-05-04 05:40 | 31.14145 | 121.80414 | 21 ft | 13 kts | 250° |
| 2026-05-04 05:41 | 31.14113 | 121.80308 | 21 ft | 14 kts | 252° |
| 2026-05-04 05:41 | 31.14082 | 121.80198 | 21 ft | 14 kts | 252° |
| 2026-05-04 05:41 | 31.14050 | 121.80083 | 21 ft | 15 kts | 252° |
| 2026-05-04 05:41 | 31.14018 | 121.79965 | 21 ft | 10 kts | 253° |
| 2026-05-04 05:42 | 31.13994 | 121.79881 | 21 ft | 11 kts | 251° |
| 2026-05-04 05:42 | 31.13968 | 121.79787 | 21 ft | 12 kts | 250° |
| 2026-05-04 05:42 | 31.13900 | 121.79771 | 21 ft | 11 kts | 163° |
| 2026-05-04 05:42 | 31.13819 | 121.79800 | 21 ft | 12 kts | 161° |
| 2026-05-04 05:43 | 31.13731 | 121.79834 | 21 ft | 13 kts | 162° |
| 2026-05-04 05:43 | 31.13639 | 121.79870 | 21 ft | 14 kts | 161° |
| 2026-05-04 05:43 | 31.13543 | 121.79908 | 21 ft | 14 kts | 161° |
| 2026-05-04 05:45 | 31.12922 | 121.80139 | 21 ft | 6 kts | 161° |
| 2026-05-04 05:45 | 31.12889 | 121.80152 | 21 ft | 2 kts | 162° |
| 2026-05-04 05:47 | 31.12730 | 121.79992 | 21 ft | 0 kts | 252° |
| 2026-05-04 05:47 | 31.12729 | 121.79989 | 21 ft | 1 kts | 252° |
| 2026-05-04 05:48 | 31.12724 | 121.79971 | 21 ft | 3 kts | 252° |
| 2026-05-04 05:48 | 31.12716 | 121.79942 | 21 ft | 4 kts | 252° |
| 2026-05-04 05:48 | 31.12707 | 121.79898 | 21 ft | 5 kts | 275° |
| 2026-05-04 05:48 | 31.12743 | 121.79877 | 21 ft | 6 kts | 344° |
| 2026-05-04 05:49 | 31.12792 | 121.79858 | 21 ft | 8 kts | 342° |
| 2026-05-04 05:49 | 31.13054 | 121.79763 | 21 ft | 76 kts | 342° |
| 2026-05-04 05:49 | 31.13786 | 121.79502 | 22 ft | 138 kts | 337° |
| 2026-05-04 05:49 | 31.14798 | 121.79076 | 267 ft | 163 kts | 345° |
| 2026-05-04 05:51 | 31.23603 | 121.75642 | 3913 ft | 240 kts | 339° |
| 2026-05-04 05:51 | 31.25249 | 121.74989 | 4663 ft | 249 kts | 339° |
| 2026-05-04 05:52 | 31.26878 | 121.74345 | 5628 ft | 248 kts | 339° |
| 2026-05-04 05:52 | 31.28498 | 121.73704 | 6599 ft | 247 kts | 339° |
| 2026-05-04 05:52 | 31.30127 | 121.73058 | 7498 ft | 248 kts | 339° |
| 2026-05-04 05:52 | 31.31834 | 121.72639 | 8331 ft | 254 kts | 359° |
| 2026-05-04 05:53 | 31.33648 | 121.73180 | 9205 ft | 264 kts | 26° |
| 2026-05-04 05:54 | 31.39710 | 121.90404 | 13153 ft | 372 kts | 55° |
| 2026-05-04 05:55 | 31.41181 | 121.93224 | 13535 ft | 389 kts | 56° |
| 2026-05-04 05:55 | 31.42729 | 121.96227 | 14211 ft | 397 kts | 56° |
| 2026-05-04 05:55 | 31.44273 | 121.99259 | 14969 ft | 401 kts | 56° |
| 2026-05-04 05:55 | 31.45851 | 122.02399 | 15568 ft | 406 kts | 57° |
| 2026-05-04 05:56 | 31.47410 | 122.05610 | 15801 ft | 408 kts | 58° |
| 2026-05-04 05:56 | 31.48991 | 122.08896 | 15807 ft | 408 kts | 58° |
| 2026-05-04 05:56 | 31.50490 | 122.12015 | 15809 ft | 408 kts | 58° |
| 2026-05-04 05:56 | 31.52078 | 122.15315 | 15793 ft | 408 kts | 58° |
| 2026-05-04 05:57 | 31.53633 | 122.18542 | 15805 ft | 408 kts | 58° |
| 2026-05-04 05:57 | 31.55154 | 122.21697 | 15808 ft | 408 kts | 57° |
| 2026-05-04 05:57 | 31.56708 | 122.24925 | 15803 ft | 408 kts | 58° |
| 2026-05-04 05:57 | 31.58147 | 122.27917 | 15808 ft | 408 kts | 58° |
| 2026-05-04 05:58 | 31.59736 | 122.31218 | 15808 ft | 408 kts | 58° |
| 2026-05-04 05:58 | 31.61226 | 122.34361 | 15808 ft | 409 kts | 60° |
| 2026-05-04 05:58 | 31.62474 | 122.37897 | 15804 ft | 412 kts | 70° |
| 2026-05-04 05:58 | 31.63157 | 122.41212 | 15803 ft | 413 kts | 78° |
| 2026-05-04 05:59 | 31.63613 | 122.44578 | 15801 ft | 414 kts | 79° |
| 2026-05-04 05:59 | 31.64021 | 122.47907 | 15795 ft | 413 kts | 80° |
| 2026-05-04 05:59 | 31.64471 | 122.51547 | 15801 ft | 414 kts | 79° |
| 2026-05-04 05:59 | 31.64956 | 122.55352 | 15798 ft | 414 kts | 79° |
| 2026-05-04 06:00 | 31.65442 | 122.59077 | 15792 ft | 415 kts | 79° |
| 2026-05-04 06:00 | 31.65938 | 122.62853 | 15792 ft | 414 kts | 79° |
| 2026-05-04 06:00 | 31.66440 | 122.66657 | 15949 ft | 421 kts | 79° |
| 2026-05-04 06:00 | 31.66937 | 122.70420 | 16707 ft | 423 kts | 79° |
| 2026-05-04 06:01 | 31.67423 | 122.74126 | 17485 ft | 424 kts | 79° |
| 2026-05-04 06:01 | 31.67927 | 122.77969 | 18150 ft | 428 kts | 79° |
| 2026-05-04 06:03 | 31.71719 | 123.06223 | 21325 ft | 471 kts | 81° |
| 2026-05-04 06:03 | 31.72289 | 123.10536 | 21589 ft | 475 kts | 82° |
| 2026-05-04 06:05 | 31.81207 | 123.39413 | 24287 ft | 510 kts | 82° |
| 2026-05-04 06:05 | 31.82014 | 123.48566 | 25154 ft | 515 kts | 96° |
| 2026-05-04 06:05 | 31.81455 | 123.53178 | 25601 ft | 510 kts | 109° |
| 2026-05-04 06:06 | 31.80240 | 123.57448 | 26024 ft | 508 kts | 117° |
| 2026-05-04 06:06 | 31.78786 | 123.61786 | 26467 ft | 510 kts | 118° |
| 2026-05-04 06:06 | 31.77313 | 123.66120 | 26921 ft | 513 kts | 118° |
| 2026-05-04 06:06 | 31.75814 | 123.70610 | 27295 ft | 517 kts | 118° |
| 2026-05-04 06:07 | 31.74388 | 123.74979 | 27674 ft | 520 kts | 118° |
| 2026-05-04 06:07 | 31.72990 | 123.79314 | 28030 ft | 522 kts | 117° |
| 2026-05-04 06:07 | 31.71516 | 123.83910 | 28353 ft | 525 kts | 118° |
| 2026-05-04 06:07 | 31.70030 | 123.88537 | 28788 ft | 525 kts | 118° |
| 2026-05-04 06:08 | 31.68599 | 123.92986 | 29277 ft | 524 kts | 118° |
| 2026-05-04 06:08 | 31.67315 | 123.97417 | 29691 ft | 532 kts | 110° |
| 2026-05-04 06:08 | 31.66861 | 124.02424 | 30170 ft | 545 kts | 92° |
| 2026-05-04 06:08 | 31.67539 | 124.07458 | 30770 ft | 548 kts | 78° |
| 2026-05-04 06:09 | 31.68646 | 124.12254 | 31193 ft | 549 kts | 75° |
| 2026-05-04 06:09 | 31.69779 | 124.16843 | 31541 ft | 550 kts | 75° |
| 2026-05-04 06:11 | 31.77327 | 124.50176 | 34302 ft | 544 kts | 77° |
| 2026-05-04 06:11 | 31.78387 | 124.55016 | 34586 ft | 545 kts | 77° |
| 2026-05-04 06:13 | 31.85630 | 124.88239 | 36038 ft | 552 kts | 77° |
| 2026-05-04 06:14 | 31.85328 | 125.17379 | 36746 ft | 543 kts | 109° |
| 2026-05-04 06:14 | 31.84434 | 125.22424 | 36852 ft | 546 kts | 108° |
| 2026-05-04 06:15 | 31.83589 | 125.27402 | 36977 ft | 548 kts | 107° |
| 2026-05-04 06:15 | 31.82773 | 125.32333 | 37097 ft | 548 kts | 107° |
| 2026-05-04 06:15 | 31.81201 | 125.41896 | 37102 ft | 550 kts | 108° |
| 2026-05-04 06:16 | 31.79559 | 125.51804 | 37106 ft | 550 kts | 108° |
| 2026-05-04 06:16 | 31.77885 | 125.62064 | 37102 ft | 554 kts | 103° |
| 2026-05-04 06:17 | 31.77652 | 125.67105 | 37094 ft | 563 kts | 91° |
| 2026-05-04 06:17 | 31.78234 | 125.71989 | 37113 ft | 569 kts | 78° |
| 2026-05-04 06:17 | 31.80634 | 125.82136 | 37114 ft | 570 kts | 75° |
| 2026-05-04 06:18 | 31.82977 | 125.92186 | 37118 ft | 570 kts | 77° |
| 2026-05-04 06:20 | 31.89820 | 126.33091 | 37115 ft | 566 kts | 90° |
| 2026-05-04 06:21 | 31.92200 | 126.58883 | 37112 ft | 572 kts | 77° |
| 2026-05-04 06:22 | 31.94382 | 126.68626 | 37104 ft | 573 kts | 77° |
| 2026-05-04 06:25 | 32.13560 | 127.37595 | 37091 ft | 575 kts | 65° |
| 2026-05-04 06:26 | 32.17221 | 127.47368 | 37091 ft | 575 kts | 65° |
| 2026-05-04 06:26 | 32.20850 | 127.57084 | 37097 ft | 576 kts | 66° |
| 2026-05-04 06:27 | 32.29666 | 127.80799 | 37097 ft | 576 kts | 66° |
| 2026-05-04 06:28 | 32.33238 | 127.90456 | 37095 ft | 575 kts | 66° |
| 2026-05-04 06:28 | 32.36816 | 128.00131 | 37089 ft | 575 kts | 67° |
| 2026-05-04 06:29 | 32.40373 | 128.09813 | 37085 ft | 576 kts | 66° |
| 2026-05-04 06:29 | 32.43903 | 128.19406 | 37077 ft | 576 kts | 67° |
| 2026-05-04 06:30 | 32.47531 | 128.29349 | 37071 ft | 577 kts | 67° |
| 2026-05-04 06:30 | 32.51000 | 128.38856 | 37068 ft | 577 kts | 66° |
| 2026-05-04 06:31 | 32.54621 | 128.48805 | 37065 ft | 577 kts | 66° |
| 2026-05-04 06:31 | 32.58064 | 128.58289 | 37064 ft | 577 kts | 66° |
| 2026-05-04 06:33 | 32.69674 | 128.95848 | 37063 ft | 578 kts | 80° |
| 2026-05-04 06:34 | 32.71668 | 129.06014 | 37063 ft | 579 kts | 79° |
| 2026-05-04 06:34 | 32.73697 | 129.16064 | 37062 ft | 578 kts | 79° |
| 2026-05-04 06:36 | 32.81687 | 129.55643 | 37057 ft | 576 kts | 79° |
| 2026-05-04 06:37 | 32.83580 | 129.65138 | 37055 ft | 576 kts | 79° |
| 2026-05-04 06:37 | 32.85428 | 129.74466 | 37051 ft | 576 kts | 80° |
| 2026-05-04 06:38 | 32.87251 | 129.83795 | 37048 ft | 576 kts | 81° |
| 2026-05-04 06:40 | 32.94484 | 130.21300 | 37037 ft | 576 kts | 80° |
| 2026-05-04 06:40 | 32.96279 | 130.30684 | 37033 ft | 575 kts | 80° |
| 2026-05-04 06:41 | 32.98043 | 130.39980 | 37028 ft | 574 kts | 80° |
| 2026-05-04 06:41 | 32.99822 | 130.49356 | 37025 ft | 574 kts | 81° |
| 2026-05-04 06:42 | 33.01579 | 130.58697 | 37023 ft | 574 kts | 81° |
| 2026-05-04 06:44 | 33.08559 | 130.96130 | 37026 ft | 573 kts | 82° |
| 2026-05-04 06:44 | 33.10304 | 131.05569 | 37015 ft | 571 kts | 82° |
| 2026-05-04 06:45 | 33.12012 | 131.14899 | 37014 ft | 573 kts | 82° |
| 2026-05-04 06:45 | 33.13734 | 131.24364 | 37009 ft | 573 kts | 82° |
| 2026-05-04 06:46 | 33.15474 | 131.33870 | 37007 ft | 573 kts | 81° |
| 2026-05-04 06:46 | 33.17215 | 131.43483 | 37006 ft | 574 kts | 82° |
| 2026-05-04 06:48 | 33.23929 | 131.76228 | 36992 ft | 578 kts | 70° |
| 2026-05-04 06:48 | 33.25429 | 131.80666 | 36991 ft | 578 kts | 69° |
| 2026-05-04 06:50 | 33.37749 | 132.16704 | 36963 ft | 578 kts | 69° |
| 2026-05-04 06:51 | 33.40768 | 132.25716 | 36959 ft | 578 kts | 70° |
| 2026-05-04 06:51 | 33.43815 | 132.34819 | 36961 ft | 577 kts | 70° |
| 2026-05-04 06:52 | 33.46827 | 132.43840 | 36958 ft | 578 kts | 69° |
| 2026-05-04 06:52 | 33.49821 | 132.52835 | 36961 ft | 577 kts | 70° |
| 2026-05-04 06:53 | 33.52820 | 132.61870 | 36956 ft | 578 kts | 69° |
| 2026-05-04 06:53 | 33.55807 | 132.70894 | 36958 ft | 578 kts | 70° |
| 2026-05-04 06:54 | 33.58760 | 132.79839 | 36962 ft | 578 kts | 70° |
| 2026-05-04 06:54 | 33.61762 | 132.88969 | 36957 ft | 578 kts | 70° |
| 2026-05-04 06:55 | 33.64655 | 132.98029 | 36946 ft | 577 kts | 73° |
| 2026-05-04 06:55 | 33.66992 | 133.07356 | 36936 ft | 575 kts | 78° |
| 2026-05-04 06:57 | 33.75926 | 133.44913 | 36928 ft | 577 kts | 76° |
| 2026-05-04 06:58 | 33.78171 | 133.54329 | 36928 ft | 577 kts | 77° |
| 2026-05-04 06:58 | 33.80398 | 133.63762 | 36927 ft | 576 kts | 77° |
| 2026-05-04 06:59 | 33.82597 | 133.73076 | 36926 ft | 576 kts | 78° |
| 2026-05-04 06:59 | 33.84797 | 133.82445 | 36920 ft | 577 kts | 77° |
| 2026-05-04 07:01 | 33.93704 | 134.20692 | 36918 ft | 575 kts | 78° |
| 2026-05-04 07:02 | 33.95874 | 134.30110 | 36924 ft | 576 kts | 78° |
| 2026-05-04 07:02 | 33.98024 | 134.39470 | 36915 ft | 576 kts | 78° |
| 2026-05-04 07:03 | 34.00182 | 134.48898 | 36910 ft | 576 kts | 78° |
| 2026-05-04 07:03 | 34.02334 | 134.58327 | 36900 ft | 575 kts | 77° |
| 2026-05-04 07:04 | 34.04472 | 134.67760 | 36893 ft | 576 kts | 79° |
| 2026-05-04 07:04 | 34.06606 | 134.77167 | 36894 ft | 576 kts | 79° |
| 2026-05-04 07:05 | 34.08706 | 134.86497 | 36892 ft | 575 kts | 79° |
| 2026-05-04 07:05 | 34.10787 | 134.95805 | 36888 ft | 576 kts | 78° |
| 2026-05-04 07:06 | 34.13939 | 135.09876 | 36878 ft | 575 kts | 78° |
| 2026-05-04 07:07 | 34.16033 | 135.19278 | 36878 ft | 575 kts | 79° |
| 2026-05-04 07:09 | 34.24263 | 135.56702 | 36866 ft | 574 kts | 78° |
| 2026-05-04 07:09 | 34.26298 | 135.66036 | 36860 ft | 572 kts | 79° |
| 2026-05-04 07:10 | 34.28329 | 135.75400 | 36859 ft | 573 kts | 79° |
| 2026-05-04 07:12 | 34.36434 | 136.13147 | 36835 ft | 571 kts | 79° |
| 2026-05-04 07:12 | 34.38444 | 136.22566 | 36834 ft | 571 kts | 80° |
| 2026-05-04 07:13 | 34.40497 | 136.32271 | 36836 ft | 571 kts | 79° |
| 2026-05-04 07:13 | 34.42522 | 136.41882 | 36835 ft | 570 kts | 79° |
| 2026-05-04 07:14 | 34.47532 | 136.65794 | 36823 ft | 570 kts | 79° |
| 2026-05-04 07:15 | 34.49465 | 136.75107 | 36823 ft | 570 kts | 80° |
| 2026-05-04 07:15 | 34.51409 | 136.84503 | 36812 ft | 570 kts | 80° |
| 2026-05-04 07:16 | 34.53227 | 136.94183 | 36805 ft | 567 kts | 86° |
| 2026-05-04 07:16 | 34.54010 | 137.03711 | 36802 ft | 558 kts | 96° |
| 2026-05-04 07:17 | 34.54054 | 137.13261 | 36805 ft | 559 kts | 97° |
| 2026-05-04 07:17 | 34.54052 | 137.22948 | 36798 ft | 559 kts | 96° |
| 2026-05-04 07:18 | 34.54101 | 137.32898 | 36789 ft | 560 kts | 96° |
| 2026-05-04 07:18 | 34.54163 | 137.42670 | 36729 ft | 561 kts | 96° |
| 2026-05-04 07:19 | 34.54190 | 137.47653 | 36405 ft | 559 kts | 96° |
| 2026-05-04 07:19 | 34.54217 | 137.52571 | 36091 ft | 555 kts | 96° |
| 2026-05-04 07:19 | 34.54235 | 137.57286 | 35787 ft | 551 kts | 96° |
| 2026-05-04 07:19 | 34.54255 | 137.62134 | 35474 ft | 547 kts | 97° |
| 2026-05-04 07:20 | 34.54275 | 137.66937 | 35157 ft | 545 kts | 98° |
| 2026-05-04 07:20 | 34.54281 | 137.71596 | 34853 ft | 545 kts | 98° |
| 2026-05-04 07:20 | 34.54287 | 137.76169 | 34557 ft | 544 kts | 97° |
| 2026-05-04 07:20 | 34.54294 | 137.81070 | 34237 ft | 545 kts | 97° |
| 2026-05-04 07:22 | 34.54300 | 138.14014 | 32218 ft | 544 kts | 97° |
| 2026-05-04 07:22 | 34.54289 | 138.18545 | 31956 ft | 545 kts | 97° |
| 2026-05-04 07:23 | 34.54274 | 138.23180 | 31686 ft | 545 kts | 98° |
| 2026-05-04 07:23 | 34.54257 | 138.27852 | 31419 ft | 546 kts | 97° |
| 2026-05-04 07:23 | 34.54332 | 138.32443 | 31097 ft | 549 kts | 92° |
| 2026-05-04 07:23 | 34.54792 | 138.37036 | 30548 ft | 558 kts | 84° |
| 2026-05-04 07:24 | 34.55733 | 138.41669 | 29780 ft | 565 kts | 75° |
| 2026-05-04 07:24 | 34.57157 | 138.46133 | 28928 ft | 569 kts | 67° |
| 2026-05-04 07:24 | 34.58908 | 138.50413 | 28143 ft | 569 kts | 64° |
| 2026-05-04 07:24 | 34.60761 | 138.54651 | 27548 ft | 565 kts | 63° |
| 2026-05-04 07:25 | 34.62601 | 138.58864 | 26942 ft | 560 kts | 63° |
| 2026-05-04 07:26 | 34.71748 | 138.88650 | 22799 ft | 514 kts | 98° |
| 2026-05-04 07:27 | 34.71639 | 138.93002 | 22206 ft | 510 kts | 100° |
| 2026-05-04 07:27 | 34.71524 | 138.97316 | 21679 ft | 507 kts | 98° |
| 2026-05-04 07:27 | 34.71452 | 139.01610 | 21114 ft | 505 kts | 97° |
| 2026-05-04 07:27 | 34.71426 | 139.05898 | 20499 ft | 504 kts | 97° |
| 2026-05-04 07:28 | 34.71404 | 139.10245 | 19906 ft | 502 kts | 96° |
| 2026-05-04 07:28 | 34.71387 | 139.14517 | 19310 ft | 499 kts | 96° |
| 2026-05-04 07:28 | 34.71369 | 139.18753 | 18713 ft | 497 kts | 96° |
| 2026-05-04 07:28 | 34.71346 | 139.22995 | 18121 ft | 494 kts | 96° |
| 2026-05-04 07:29 | 34.71320 | 139.27231 | 17510 ft | 492 kts | 96° |
| 2026-05-04 07:29 | 34.71289 | 139.31406 | 16935 ft | 489 kts | 96° |
| 2026-05-04 07:29 | 34.71261 | 139.35558 | 16362 ft | 486 kts | 96° |
| 2026-05-04 07:29 | 34.71231 | 139.39642 | 15793 ft | 482 kts | 97° |
| 2026-05-04 07:30 | 34.71066 | 139.43720 | 15230 ft | 475 kts | 101° |
| 2026-05-04 07:30 | 34.70775 | 139.47737 | 14654 ft | 470 kts | 102° |
| 2026-05-04 07:30 | 34.70452 | 139.51753 | 14094 ft | 466 kts | 102° |
| 2026-05-04 07:30 | 34.70114 | 139.55890 | 13517 ft | 461 kts | 102° |
| 2026-05-04 07:31 | 34.69787 | 139.59976 | 12951 ft | 457 kts | 101° |
| 2026-05-04 07:31 | 34.69480 | 139.63876 | 12412 ft | 452 kts | 102° |
| 2026-05-04 07:33 | 34.68670 | 139.88287 | 12053 ft | 346 kts | 63° |
| 2026-05-04 07:33 | 34.69888 | 139.90823 | 11839 ft | 339 kts | 57° |
| 2026-05-04 07:33 | 34.71229 | 139.93303 | 11722 ft | 331 kts | 55° |
| 2026-05-04 07:33 | 34.72577 | 139.95830 | 11676 ft | 332 kts | 56° |
| 2026-05-04 07:34 | 34.73819 | 139.98270 | 11525 ft | 333 kts | 58° |
| 2026-05-04 07:34 | 34.75058 | 140.00790 | 11162 ft | 334 kts | 58° |
| 2026-05-04 07:34 | 34.76316 | 140.03383 | 10814 ft | 333 kts | 59° |
| 2026-05-04 07:34 | 34.77549 | 140.05962 | 10489 ft | 332 kts | 60° |
| 2026-05-04 07:35 | 34.78740 | 140.08450 | 10180 ft | 330 kts | 60° |
| 2026-05-04 07:35 | 34.79961 | 140.10979 | 9861 ft | 329 kts | 60° |
| 2026-05-04 07:35 | 34.81234 | 140.13641 | 9603 ft | 323 kts | 59° |
| 2026-05-04 07:35 | 34.82452 | 140.16167 | 9617 ft | 316 kts | 59° |
| 2026-05-04 07:36 | 34.83598 | 140.18549 | 9478 ft | 319 kts | 59° |
| 2026-05-04 07:36 | 34.84859 | 140.21172 | 9125 ft | 319 kts | 60° |